sensor_id;sensor_type;location;lat;lon;timestamp;P1;durP1;ratioP1;P2;durP2;ratioP2
70313;SDS011;71040;47.526;18.986;2023-12-20T00:00:36;12.60;;;9.50;;
70313;SDS011;71040;47.526;18.986;2023-12-20T00:05:38;13.90;;;10.27;;
70313;SDS011;71040;47.526;18.986;2023-12-20T00:10:41;13.55;;;10.10;;
70313;SDS011;71040;47.526;18.986;2023-12-20T00:15:48;14.75;;;10.30;;
70313;SDS011;71040;47.526;18.986;2023-12-20T00:20:48;14.13;;;9.87;;
70313;SDS011;71040;47.526;18.986;2023-12-20T00:25:51;13.73;;;9.93;;
70313;SDS011;71040;47.526;18.986;2023-12-20T00:30:51;13.25;;;9.82;;
70313;SDS011;71040;47.526;18.986;2023-12-20T00:35:52;13.90;;;10.00;;
70313;SDS011;71040;47.526;18.986;2023-12-20T00:40:52;15.07;;;10.40;;
70313;SDS011;71040;47.526;18.986;2023-12-20T00:45:53;16.20;;;11.13;;
70313;SDS011;71040;47.526;18.986;2023-12-20T00:50:53;14.07;;;10.37;;
70313;SDS011;71040;47.526;18.986;2023-12-20T00:55:53;15.17;;;10.27;;
70313;SDS011;71040;47.526;18.986;2023-12-20T01:00:54;15.37;;;10.60;;
70313;SDS011;71040;47.526;18.986;2023-12-20T01:05:58;14.63;;;10.27;;
70313;SDS011;71040;47.526;18.986;2023-12-20T01:11:05;13.77;;;10.10;;
70313;SDS011;71040;47.526;18.986;2023-12-20T01:16:06;15.10;;;10.57;;
70313;SDS011;71040;47.526;18.986;2023-12-20T01:21:06;15.50;;;11.02;;
70313;SDS011;71040;47.526;18.986;2023-12-20T01:26:07;14.30;;;10.30;;
70313;SDS011;71040;47.526;18.986;2023-12-20T01:31:08;14.67;;;10.47;;
70313;SDS011;71040;47.526;18.986;2023-12-20T01:36:08;14.52;;;10.25;;
70313;SDS011;71040;47.526;18.986;2023-12-20T01:41:09;14.10;;;9.85;;
70313;SDS011;71040;47.526;18.986;2023-12-20T01:46:09;14.80;;;9.83;;
70313;SDS011;71040;47.526;18.986;2023-12-20T01:51:13;14.68;;;10.00;;
70313;SDS011;71040;47.526;18.986;2023-12-20T01:56:14;14.30;;;10.45;;
70313;SDS011;71040;47.526;18.986;2023-12-20T02:01:15;15.65;;;11.35;;
70313;SDS011;71040;47.526;18.986;2023-12-20T02:06:16;15.85;;;10.90;;
70313;SDS011;71040;47.526;18.986;2023-12-20T02:11:18;14.13;;;10.07;;
70313;SDS011;71040;47.526;18.986;2023-12-20T02:16:19;12.88;;;9.93;;
70313;SDS011;71040;47.526;18.986;2023-12-20T02:21:41;15.07;;;10.50;;
70313;SDS011;71040;47.526;18.986;2023-12-20T02:26:40;13.57;;;9.88;;
70313;SDS011;71040;47.526;18.986;2023-12-20T02:31:41;14.70;;;10.75;;
70313;SDS011;71040;47.526;18.986;2023-12-20T02:36:41;13.80;;;9.67;;
70313;SDS011;71040;47.526;18.986;2023-12-20T02:41:45;13.43;;;9.80;;
70313;SDS011;71040;47.526;18.986;2023-12-20T02:46:45;13.40;;;9.73;;
70313;SDS011;71040;47.526;18.986;2023-12-20T02:51:45;14.63;;;10.63;;
70313;SDS011;71040;47.526;18.986;2023-12-20T02:56:46;13.75;;;9.40;;
70313;SDS011;71040;47.526;18.986;2023-12-20T03:01:47;12.35;;;9.30;;
70313;SDS011;71040;47.526;18.986;2023-12-20T03:06:47;14.00;;;10.17;;
70313;SDS011;71040;47.526;18.986;2023-12-20T03:11:48;11.70;;;9.00;;
70313;SDS011;71040;47.526;18.986;2023-12-20T03:16:51;13.47;;;9.43;;
70313;SDS011;71040;47.526;18.986;2023-12-20T03:21:52;14.00;;;10.07;;
70313;SDS011;71040;47.526;18.986;2023-12-20T03:26:53;12.15;;;8.82;;
70313;SDS011;71040;47.526;18.986;2023-12-20T03:31:54;11.77;;;8.97;;
70313;SDS011;71040;47.526;18.986;2023-12-20T03:36:54;12.67;;;9.53;;
70313;SDS011;71040;47.526;18.986;2023-12-20T03:41:57;13.52;;;9.20;;
70313;SDS011;71040;47.526;18.986;2023-12-20T03:46:57;13.13;;;8.77;;
70313;SDS011;71040;47.526;18.986;2023-12-20T03:51:58;12.40;;;9.67;;
70313;SDS011;71040;47.526;18.986;2023-12-20T03:56:58;14.07;;;9.80;;
70313;SDS011;71040;47.526;18.986;2023-12-20T04:01:59;12.17;;;8.83;;
70313;SDS011;71040;47.526;18.986;2023-12-20T04:06:59;13.18;;;9.50;;
70313;SDS011;71040;47.526;18.986;2023-12-20T04:11:59;12.40;;;9.00;;
70313;SDS011;71040;47.526;18.986;2023-12-20T04:17:00;13.27;;;9.53;;
70313;SDS011;71040;47.526;18.986;2023-12-20T04:22:00;13.77;;;10.20;;
70313;SDS011;71040;47.526;18.986;2023-12-20T04:27:01;15.67;;;10.30;;
70313;SDS011;71040;47.526;18.986;2023-12-20T04:32:02;13.45;;;10.63;;
70313;SDS011;71040;47.526;18.986;2023-12-20T04:37:02;12.48;;;9.48;;
70313;SDS011;71040;47.526;18.986;2023-12-20T04:42:03;13.73;;;9.93;;
70313;SDS011;71040;47.526;18.986;2023-12-20T04:47:05;14.20;;;9.98;;
70313;SDS011;71040;47.526;18.986;2023-12-20T04:52:08;15.93;;;10.30;;
70313;SDS011;71040;47.526;18.986;2023-12-20T04:57:09;13.33;;;9.53;;
70313;SDS011;71040;47.526;18.986;2023-12-20T05:02:09;15.17;;;10.03;;
70313;SDS011;71040;47.526;18.986;2023-12-20T05:07:09;14.70;;;10.13;;
70313;SDS011;71040;47.526;18.986;2023-12-20T05:12:10;15.03;;;10.57;;
70313;SDS011;71040;47.526;18.986;2023-12-20T05:17:12;14.03;;;10.20;;
70313;SDS011;71040;47.526;18.986;2023-12-20T05:22:13;15.80;;;11.02;;
70313;SDS011;71040;47.526;18.986;2023-12-20T05:27:13;13.93;;;10.10;;
70313;SDS011;71040;47.526;18.986;2023-12-20T05:32:14;15.07;;;10.93;;
70313;SDS011;71040;47.526;18.986;2023-12-20T05:37:14;14.45;;;10.00;;
70313;SDS011;71040;47.526;18.986;2023-12-20T05:42:15;14.27;;;10.83;;
70313;SDS011;71040;47.526;18.986;2023-12-20T05:47:15;16.40;;;10.53;;
70313;SDS011;71040;47.526;18.986;2023-12-20T05:52:15;14.07;;;9.97;;
70313;SDS011;71040;47.526;18.986;2023-12-20T05:57:16;14.30;;;10.47;;
70313;SDS011;71040;47.526;18.986;2023-12-20T06:02:18;13.38;;;9.65;;
70313;SDS011;71040;47.526;18.986;2023-12-20T06:07:19;13.00;;;9.27;;
70313;SDS011;71040;47.526;18.986;2023-12-20T06:12:20;13.60;;;10.00;;
70313;SDS011;71040;47.526;18.986;2023-12-20T06:17:21;13.60;;;10.20;;
70313;SDS011;71040;47.526;18.986;2023-12-20T06:22:21;13.10;;;9.60;;
70313;SDS011;71040;47.526;18.986;2023-12-20T06:27:21;11.70;;;9.17;;
70313;SDS011;71040;47.526;18.986;2023-12-20T06:32:22;14.20;;;10.13;;
70313;SDS011;71040;47.526;18.986;2023-12-20T06:37:23;15.38;;;10.38;;
70313;SDS011;71040;47.526;18.986;2023-12-20T06:42:23;16.67;;;11.93;;
70313;SDS011;71040;47.526;18.986;2023-12-20T06:47:24;16.80;;;11.63;;
70313;SDS011;71040;47.526;18.986;2023-12-20T06:52:24;15.35;;;11.50;;
70313;SDS011;71040;47.526;18.986;2023-12-20T06:57:25;15.00;;;11.03;;
70313;SDS011;71040;47.526;18.986;2023-12-20T07:02:26;14.70;;;10.60;;
70313;SDS011;71040;47.526;18.986;2023-12-20T07:07:29;16.73;;;11.32;;
70313;SDS011;71040;47.526;18.986;2023-12-20T07:12:32;13.00;;;10.07;;
70313;SDS011;71040;47.526;18.986;2023-12-20T07:17:32;13.97;;;10.27;;
70313;SDS011;71040;47.526;18.986;2023-12-20T07:22:37;14.68;;;10.70;;
70313;SDS011;71040;47.526;18.986;2023-12-20T07:27:38;13.48;;;10.07;;
70313;SDS011;71040;47.526;18.986;2023-12-20T07:32:38;14.63;;;10.60;;
70313;SDS011;71040;47.526;18.986;2023-12-20T07:37:38;13.47;;;9.90;;
70313;SDS011;71040;47.526;18.986;2023-12-20T07:42:39;13.10;;;9.93;;
70313;SDS011;71040;47.526;18.986;2023-12-20T07:47:40;15.18;;;10.77;;
70313;SDS011;71040;47.526;18.986;2023-12-20T07:52:40;16.25;;;11.13;;
70313;SDS011;71040;47.526;18.986;2023-12-20T07:57:58;15.00;;;10.50;;
70313;SDS011;71040;47.526;18.986;2023-12-20T08:03:06;15.35;;;10.50;;
70313;SDS011;71040;47.526;18.986;2023-12-20T08:08:07;14.43;;;10.60;;
70313;SDS011;71040;47.526;18.986;2023-12-20T08:13:09;15.63;;;11.05;;
70313;SDS011;71040;47.526;18.986;2023-12-20T08:18:10;15.48;;;10.90;;
70313;SDS011;71040;47.526;18.986;2023-12-20T08:23:13;14.75;;;10.15;;
70313;SDS011;71040;47.526;18.986;2023-12-20T08:28:16;14.65;;;10.52;;
70313;SDS011;71040;47.526;18.986;2023-12-20T08:33:19;15.43;;;11.00;;
70313;SDS011;71040;47.526;18.986;2023-12-20T08:38:19;15.23;;;10.77;;
70313;SDS011;71040;47.526;18.986;2023-12-20T08:43:20;13.80;;;9.73;;
70313;SDS011;71040;47.526;18.986;2023-12-20T08:48:20;15.20;;;11.47;;
70313;SDS011;71040;47.526;18.986;2023-12-20T08:53:23;15.97;;;10.47;;
70313;SDS011;71040;47.526;18.986;2023-12-20T08:58:25;15.55;;;11.13;;
70313;SDS011;71040;47.526;18.986;2023-12-20T09:03:25;14.27;;;10.33;;
70313;SDS011;71040;47.526;18.986;2023-12-20T09:08:28;15.50;;;10.65;;
70313;SDS011;71040;47.526;18.986;2023-12-20T09:13:28;14.30;;;10.30;;
70313;SDS011;71040;47.526;18.986;2023-12-20T09:18:29;16.37;;;11.87;;
70313;SDS011;71040;47.526;18.986;2023-12-20T09:23:29;15.73;;;10.93;;
70313;SDS011;71040;47.526;18.986;2023-12-20T09:28:32;16.25;;;10.95;;
70313;SDS011;71040;47.526;18.986;2023-12-20T09:33:36;16.02;;;11.45;;
70313;SDS011;71040;47.526;18.986;2023-12-20T09:38:37;13.90;;;10.57;;
70313;SDS011;71040;47.526;18.986;2023-12-20T09:43:37;16.27;;;11.20;;
70313;SDS011;71040;47.526;18.986;2023-12-20T09:48:38;15.35;;;11.15;;
70313;SDS011;71040;47.526;18.986;2023-12-20T09:53:40;16.35;;;11.30;;
70313;SDS011;71040;47.526;18.986;2023-12-20T09:58:42;15.27;;;11.60;;
70313;SDS011;71040;47.526;18.986;2023-12-20T10:03:43;17.87;;;12.40;;
70313;SDS011;71040;47.526;18.986;2023-12-20T10:08:43;18.80;;;12.57;;
70313;SDS011;71040;47.526;18.986;2023-12-20T10:13:44;18.47;;;11.47;;
70313;SDS011;71040;47.526;18.986;2023-12-20T10:18:54;18.05;;;13.07;;
70313;SDS011;71040;47.526;18.986;2023-12-20T10:23:56;16.55;;;12.00;;
70313;SDS011;71040;47.526;18.986;2023-12-20T10:28:59;19.30;;;13.35;;
70313;SDS011;71040;47.526;18.986;2023-12-20T10:34:01;21.38;;;13.73;;
70313;SDS011;71040;47.526;18.986;2023-12-20T10:39:02;19.38;;;13.40;;
70313;SDS011;71040;47.526;18.986;2023-12-20T10:44:03;19.92;;;13.35;;
70313;SDS011;71040;47.526;18.986;2023-12-20T10:49:07;19.02;;;12.98;;
70313;SDS011;71040;47.526;18.986;2023-12-20T10:54:09;22.88;;;14.85;;
70313;SDS011;71040;47.526;18.986;2023-12-20T10:59:11;20.85;;;13.38;;
70313;SDS011;71040;47.526;18.986;2023-12-20T11:04:18;19.65;;;13.80;;
70313;SDS011;71040;47.526;18.986;2023-12-20T11:09:31;20.02;;;12.88;;
70313;SDS011;71040;47.526;18.986;2023-12-20T11:19:38;17.50;;;11.77;;
70313;SDS011;71040;47.526;18.986;2023-12-20T11:25:06;16.35;;;11.02;;
70313;SDS011;71040;47.526;18.986;2023-12-20T11:30:09;16.00;;;10.02;;
70313;SDS011;71040;47.526;18.986;2023-12-20T11:40:14;12.35;;;8.75;;
70313;SDS011;71040;47.526;18.986;2023-12-20T11:45:17;12.20;;;8.30;;
70313;SDS011;71040;47.526;18.986;2023-12-20T11:50:22;11.75;;;8.05;;
70313;SDS011;71040;47.526;18.986;2023-12-20T11:55:23;11.93;;;7.78;;
70313;SDS011;71040;47.526;18.986;2023-12-20T12:00:24;12.63;;;8.50;;
70313;SDS011;71040;47.526;18.986;2023-12-20T12:05:25;10.23;;;7.20;;
70313;SDS011;71040;47.526;18.986;2023-12-20T12:10:25;11.27;;;6.97;;
70313;SDS011;71040;47.526;18.986;2023-12-20T12:15:26;11.00;;;6.60;;
70313;SDS011;71040;47.526;18.986;2023-12-20T12:20:26;10.57;;;6.28;;
70313;SDS011;71040;47.526;18.986;2023-12-20T12:25:28;11.77;;;6.67;;
70313;SDS011;71040;47.526;18.986;2023-12-20T12:30:30;9.43;;;6.20;;
70313;SDS011;71040;47.526;18.986;2023-12-20T12:35:30;10.15;;;6.25;;
70313;SDS011;71040;47.526;18.986;2023-12-20T12:40:34;7.77;;;5.87;;
70313;SDS011;71040;47.526;18.986;2023-12-20T12:45:36;7.63;;;5.20;;
70313;SDS011;71040;47.526;18.986;2023-12-20T12:50:36;8.47;;;5.27;;
70313;SDS011;71040;47.526;18.986;2023-12-20T12:55:36;9.17;;;4.90;;
70313;SDS011;71040;47.526;18.986;2023-12-20T13:00:37;7.37;;;4.90;;
70313;SDS011;71040;47.526;18.986;2023-12-20T13:05:37;7.37;;;4.43;;
70313;SDS011;71040;47.526;18.986;2023-12-20T13:10:38;6.60;;;4.57;;
70313;SDS011;71040;47.526;18.986;2023-12-20T13:15:38;7.15;;;4.65;;
70313;SDS011;71040;47.526;18.986;2023-12-20T13:20:39;6.80;;;4.78;;
70313;SDS011;71040;47.526;18.986;2023-12-20T13:25:40;6.72;;;4.65;;
70313;SDS011;71040;47.526;18.986;2023-12-20T13:30:45;6.97;;;4.85;;
70313;SDS011;71040;47.526;18.986;2023-12-20T13:35:45;6.60;;;4.90;;
70313;SDS011;71040;47.526;18.986;2023-12-20T13:40:48;6.47;;;4.20;;
70313;SDS011;71040;47.526;18.986;2023-12-20T13:45:49;6.67;;;4.13;;
70313;SDS011;71040;47.526;18.986;2023-12-20T13:50:49;7.00;;;4.05;;
70313;SDS011;71040;47.526;18.986;2023-12-20T13:55:49;6.53;;;4.10;;
70313;SDS011;71040;47.526;18.986;2023-12-20T14:00:50;7.07;;;4.70;;
70313;SDS011;71040;47.526;18.986;2023-12-20T14:05:50;6.67;;;4.53;;
70313;SDS011;71040;47.526;18.986;2023-12-20T14:10:53;7.28;;;4.72;;
70313;SDS011;71040;47.526;18.986;2023-12-20T14:15:53;7.95;;;4.82;;
70313;SDS011;71040;47.526;18.986;2023-12-20T14:20:54;7.03;;;4.80;;
70313;SDS011;71040;47.526;18.986;2023-12-20T14:25:55;7.03;;;4.65;;
70313;SDS011;71040;47.526;18.986;2023-12-20T14:30:56;6.07;;;4.10;;
70313;SDS011;71040;47.526;18.986;2023-12-20T14:35:57;7.47;;;4.90;;
70313;SDS011;71040;47.526;18.986;2023-12-20T14:40:57;5.70;;;4.00;;
70313;SDS011;71040;47.526;18.986;2023-12-20T14:45:57;5.13;;;4.27;;
70313;SDS011;71040;47.526;18.986;2023-12-20T14:50:58;5.43;;;3.78;;
70313;SDS011;71040;47.526;18.986;2023-12-20T14:55:59;7.60;;;3.95;;
70313;SDS011;71040;47.526;18.986;2023-12-20T15:01:00;6.07;;;4.23;;
70313;SDS011;71040;47.526;18.986;2023-12-20T15:06:01;6.55;;;4.35;;
70313;SDS011;71040;47.526;18.986;2023-12-20T15:11:01;5.53;;;3.97;;
70313;SDS011;71040;47.526;18.986;2023-12-20T15:16:03;5.38;;;3.90;;
70313;SDS011;71040;47.526;18.986;2023-12-20T15:21:04;5.45;;;3.30;;
70313;SDS011;71040;47.526;18.986;2023-12-20T15:26:05;4.78;;;3.38;;
70313;SDS011;71040;47.526;18.986;2023-12-20T15:31:06;3.90;;;2.80;;
70313;SDS011;71040;47.526;18.986;2023-12-20T15:36:06;4.90;;;3.25;;
70313;SDS011;71040;47.526;18.986;2023-12-20T15:41:07;4.68;;;3.20;;
70313;SDS011;71040;47.526;18.986;2023-12-20T15:46:09;4.05;;;3.17;;
70313;SDS011;71040;47.526;18.986;2023-12-20T15:51:10;4.18;;;2.85;;
70313;SDS011;71040;47.526;18.986;2023-12-20T15:56:10;3.42;;;2.38;;
70313;SDS011;71040;47.526;18.986;2023-12-20T16:01:11;4.03;;;3.15;;
70313;SDS011;71040;47.526;18.986;2023-12-20T16:06:11;3.70;;;2.43;;
70313;SDS011;71040;47.526;18.986;2023-12-20T16:11:12;3.38;;;2.28;;
70313;SDS011;71040;47.526;18.986;2023-12-20T16:16:15;4.07;;;2.08;;
70313;SDS011;71040;47.526;18.986;2023-12-20T16:21:16;3.77;;;2.83;;
70313;SDS011;71040;47.526;18.986;2023-12-20T16:26:17;3.88;;;2.33;;
70313;SDS011;71040;47.526;18.986;2023-12-20T16:31:18;2.83;;;2.03;;
70313;SDS011;71040;47.526;18.986;2023-12-20T16:36:18;3.30;;;1.97;;
70313;SDS011;71040;47.526;18.986;2023-12-20T16:41:18;3.00;;;2.17;;
70313;SDS011;71040;47.526;18.986;2023-12-20T16:46:19;2.53;;;1.93;;
70313;SDS011;71040;47.526;18.986;2023-12-20T16:51:19;4.43;;;1.90;;
70313;SDS011;71040;47.526;18.986;2023-12-20T16:56:19;3.57;;;2.27;;
70313;SDS011;71040;47.526;18.986;2023-12-20T17:01:20;3.30;;;1.90;;
70313;SDS011;71040;47.526;18.986;2023-12-20T17:06:25;3.03;;;2.28;;
70313;SDS011;71040;47.526;18.986;2023-12-20T17:11:26;3.10;;;2.20;;
70313;SDS011;71040;47.526;18.986;2023-12-20T17:16:27;2.90;;;2.10;;
70313;SDS011;71040;47.526;18.986;2023-12-20T17:21:30;3.53;;;2.17;;
70313;SDS011;71040;47.526;18.986;2023-12-20T17:26:33;2.95;;;2.20;;
70313;SDS011;71040;47.526;18.986;2023-12-20T17:31:34;3.17;;;1.77;;
70313;SDS011;71040;47.526;18.986;2023-12-20T17:36:35;3.70;;;2.15;;
70313;SDS011;71040;47.526;18.986;2023-12-20T17:41:35;3.10;;;2.00;;
70313;SDS011;71040;47.526;18.986;2023-12-20T17:46:38;2.03;;;1.33;;
70313;SDS011;71040;47.526;18.986;2023-12-20T17:51:38;3.40;;;2.03;;
70313;SDS011;71040;47.526;18.986;2023-12-20T17:56:38;2.60;;;1.43;;
70313;SDS011;71040;47.526;18.986;2023-12-20T18:01:41;3.28;;;1.83;;
70313;SDS011;71040;47.526;18.986;2023-12-20T18:06:42;2.92;;;1.67;;
70313;SDS011;71040;47.526;18.986;2023-12-20T18:11:42;2.83;;;1.67;;
70313;SDS011;71040;47.526;18.986;2023-12-20T18:16:43;2.60;;;1.75;;
70313;SDS011;71040;47.526;18.986;2023-12-20T18:21:43;2.90;;;1.90;;
70313;SDS011;71040;47.526;18.986;2023-12-20T18:26:44;4.20;;;1.63;;
70313;SDS011;71040;47.526;18.986;2023-12-20T18:31:46;2.97;;;2.00;;
70313;SDS011;71040;47.526;18.986;2023-12-20T18:36:47;2.73;;;1.90;;
70313;SDS011;71040;47.526;18.986;2023-12-20T18:41:48;2.85;;;1.95;;
70313;SDS011;71040;47.526;18.986;2023-12-20T18:46:48;2.60;;;1.80;;
70313;SDS011;71040;47.526;18.986;2023-12-20T18:51:48;3.50;;;2.40;;
70313;SDS011;71040;47.526;18.986;2023-12-20T18:56:49;2.87;;;2.20;;
70313;SDS011;71040;47.526;18.986;2023-12-20T19:01:49;3.07;;;1.87;;
70313;SDS011;71040;47.526;18.986;2023-12-20T19:06:50;3.10;;;2.20;;
70313;SDS011;71040;47.526;18.986;2023-12-20T19:11:56;2.80;;;2.08;;
70313;SDS011;71040;47.526;18.986;2023-12-20T19:16:57;3.13;;;2.22;;
70313;SDS011;71040;47.526;18.986;2023-12-20T19:22:01;3.95;;;2.47;;
70313;SDS011;71040;47.526;18.986;2023-12-20T19:27:09;3.40;;;2.33;;
70313;SDS011;71040;47.526;18.986;2023-12-20T19:32:10;3.10;;;2.67;;
70313;SDS011;71040;47.526;18.986;2023-12-20T19:37:10;4.17;;;2.60;;
70313;SDS011;71040;47.526;18.986;2023-12-20T19:42:11;3.43;;;2.80;;
70313;SDS011;71040;47.526;18.986;2023-12-20T19:47:11;3.93;;;2.73;;
70313;SDS011;71040;47.526;18.986;2023-12-20T19:52:12;3.42;;;2.60;;
70313;SDS011;71040;47.526;18.986;2023-12-20T19:57:13;5.90;;;2.93;;
70313;SDS011;71040;47.526;18.986;2023-12-20T20:02:14;4.70;;;2.93;;
70313;SDS011;71040;47.526;18.986;2023-12-20T20:07:15;4.10;;;2.88;;
70313;SDS011;71040;47.526;18.986;2023-12-20T20:12:19;4.47;;;3.08;;
70313;SDS011;71040;47.526;18.986;2023-12-20T20:17:19;4.00;;;2.70;;
70313;SDS011;71040;47.526;18.986;2023-12-20T20:22:26;4.07;;;3.13;;
70313;SDS011;71040;47.526;18.986;2023-12-20T20:27:30;3.95;;;2.95;;
70313;SDS011;71040;47.526;18.986;2023-12-20T20:32:35;4.50;;;2.78;;
70313;SDS011;71040;47.526;18.986;2023-12-20T20:37:35;5.40;;;3.30;;
70313;SDS011;71040;47.526;18.986;2023-12-20T20:42:36;3.43;;;2.50;;
70313;SDS011;71040;47.526;18.986;2023-12-20T20:47:36;3.78;;;2.60;;
70313;SDS011;71040;47.526;18.986;2023-12-20T20:52:37;4.17;;;2.60;;
70313;SDS011;71040;47.526;18.986;2023-12-20T20:57:38;4.63;;;2.80;;
70313;SDS011;71040;47.526;18.986;2023-12-20T21:02:38;4.03;;;2.90;;
70313;SDS011;71040;47.526;18.986;2023-12-20T21:07:38;3.07;;;2.27;;
70313;SDS011;71040;47.526;18.986;2023-12-20T21:12:44;3.40;;;2.47;;
70313;SDS011;71040;47.526;18.986;2023-12-20T21:17:44;4.27;;;2.47;;
70313;SDS011;71040;47.526;18.986;2023-12-20T21:22:44;3.70;;;2.60;;
70313;SDS011;71040;47.526;18.986;2023-12-20T21:27:45;4.43;;;2.83;;
70313;SDS011;71040;47.526;18.986;2023-12-20T21:32:46;3.70;;;2.63;;
70313;SDS011;71040;47.526;18.986;2023-12-20T21:37:47;3.30;;;2.45;;
70313;SDS011;71040;47.526;18.986;2023-12-20T21:42:47;3.07;;;2.20;;
70313;SDS011;71040;47.526;18.986;2023-12-20T21:47:48;3.88;;;2.38;;
70313;SDS011;71040;47.526;18.986;2023-12-20T21:52:49;3.85;;;2.53;;
70313;SDS011;71040;47.526;18.986;2023-12-20T21:57:53;2.80;;;2.05;;
70313;SDS011;71040;47.526;18.986;2023-12-20T22:02:53;2.17;;;1.60;;
70313;SDS011;71040;47.526;18.986;2023-12-20T22:07:53;3.80;;;2.00;;
70313;SDS011;71040;47.526;18.986;2023-12-20T22:12:54;3.88;;;1.52;;
70313;SDS011;71040;47.526;18.986;2023-12-20T22:17:54;1.60;;;1.37;;
70313;SDS011;71040;47.526;18.986;2023-12-20T22:22:55;2.28;;;1.48;;
70313;SDS011;71040;47.526;18.986;2023-12-20T22:27:55;4.70;;;1.40;;
70313;SDS011;71040;47.526;18.986;2023-12-20T22:32:55;2.60;;;1.67;;
70313;SDS011;71040;47.526;18.986;2023-12-20T22:37:56;1.50;;;1.00;;
70313;SDS011;71040;47.526;18.986;2023-12-20T22:42:56;1.53;;;1.10;;
70313;SDS011;71040;47.526;18.986;2023-12-20T22:47:57;2.75;;;1.50;;
70313;SDS011;71040;47.526;18.986;2023-12-20T22:52:57;2.00;;;1.03;;
70313;SDS011;71040;47.526;18.986;2023-12-20T22:57:57;1.83;;;0.90;;
70313;SDS011;71040;47.526;18.986;2023-12-20T23:02:58;1.47;;;0.90;;
70313;SDS011;71040;47.526;18.986;2023-12-20T23:07:58;1.97;;;0.90;;
70313;SDS011;71040;47.526;18.986;2023-12-20T23:12:59;2.67;;;1.05;;
70313;SDS011;71040;47.526;18.986;2023-12-20T23:17:59;1.90;;;0.90;;
70313;SDS011;71040;47.526;18.986;2023-12-20T23:23:00;2.03;;;0.65;;
70313;SDS011;71040;47.526;18.986;2023-12-20T23:28:00;0.93;;;0.70;;
70313;SDS011;71040;47.526;18.986;2023-12-20T23:33:02;1.55;;;0.80;;
70313;SDS011;71040;47.526;18.986;2023-12-20T23:38:02;2.00;;;0.70;;
70313;SDS011;71040;47.526;18.986;2023-12-20T23:43:03;1.00;;;0.60;;
70313;SDS011;71040;47.526;18.986;2023-12-20T23:48:03;1.48;;;0.77;;
70313;SDS011;71040;47.526;18.986;2023-12-20T23:53:04;1.23;;;0.47;;
70313;SDS011;71040;47.526;18.986;2023-12-20T23:58:04;0.70;;;0.40;;
